Tiempo atmosférico en la estación meteorológica de Bailén, Jaén (345 m.)



Fecha
DESCASC
Temp. máxima en grados centígrados (hora)
DESCASC
Temp. mínima en grados centígrados (hora)
DESCASC
Temp. media en grados centígrados
DESCASC
Racha de viento máxima en m/sg (hora)
DESCASC
Velocidad máxima media en intervalos de 10 minutos(hora)
DESCASC
Precipitaciones diarias en mm
DESCASC
Precipitaciones de 00:00 a 06:00 en mm
DESCASC
Precipitaciones de 06:00 a 12:00 en mm
DESCASC
Precipitaciones de 12:00 a 18:00 en mm
DESCASC
Precipitaciones de 18:00 a 24:00 en mm
DESCASC
28-02-2021 20.6 (15:50) 7.5 (07:20) 14.1 9.72 (23:50) 3.89 (23:20) 0 0 0 0 0
27-02-2021 17.5 (16:40) 9.3 (08:00) 13.4 4.44 (13:40) 1.39 (09:00) 0 0 0 0 0
26-02-2021 21.8 (15:30) 10 (06:10) 15.9 7.22 (12:10) 3.89 (07:20) 0 0 0 0 0
25-02-2021 19.3 (15:30) 9.2 (00:00) 14.2 5.28 (06:00) 3.06 (05:40) 0 0 0 0 0
24-02-2021 21.4 (16:10) 8.8 (00:00) 15.1 10 (13:20) 4.72 (13:20) 0 0 0 0 0
23-02-2021 18.9 (16:30) 3.4 (00:00) 11.1 6.11 (17:50) 2.78 (12:10) 0 0 0 0 0
22-02-2021 13.4 (16:30) 5.3 (00:00) 9.3 5.83 (09:50) 2.5 (17:40) 0.2 0.2 0 0 0
21-02-2021 14.3 (13:20) 8 (00:00) 11.2 6.94 (20:00) 2.78 (19:00) 7.6 0 0 7 0.6
20-02-2021 22.3 (14:40) 6.2 (00:00) 14.2 4.72 (23:40) 2.78 (23:40) 0 0 0 0 0
19-02-2021 21.9 (16:20) 6.7 (00:00) 14.3 3.33 (16:30) 1.67 (02:50) 0 0 0 0 0
18-02-2021 19.3 (16:30) 5.7 (00:00) 12.5 4.72 (15:40) 2.22 (15:50) 0 0 0 0 0
17-02-2021 22.3 (16:30) 5.3 (00:00) 13.8 2.78 (05:30) 1.39 (05:30) 0 0 0 0 0
16-02-2021 19.6 (16:20) 6.4 (00:00) 13 4.44 (01:10) 2.78 (01:00) 0 0 0 0 0
15-02-2021 20.4 (15:40) 8.4 (00:00) 14.4 6.39 (13:30) 3.33 (13:40) 0 0 0 0 0
14-02-2021 21 (15:30) 5.5 (00:00) 13.3 5 (14:30) 2.22 (13:10) 0 0 0 0 0
13-02-2021 17.7 (16:00) 6.3 (00:00) 12 3.89 (04:10) 2.5 (04:10) 0 0 0 0 0
12-02-2021 18.2 (16:30) 9.8 (00:00) 14 8.06 (13:00) 3.61 (17:00) 5 0 5 0 0
11-02-2021 18 (16:00) 12.9 (00:00) 15.4 4.44 (12:40) 2.5 (12:20) 5 3.2 1.8 0 0
10-02-2021 14.9 (16:40) 10.5 (00:00) 12.7 9.72 (00:40) 3.33 (01:00) 19.8 0 17 0 2.8
09-02-2021 14.1 (13:40) 9.4 (00:00) 11.8 11.39 (14:50) 5.56 (15:20) 13 0 0.6 1.2 11.2
08-02-2021 12.7 (16:50) 8.6 (00:00) 10.7 10 (07:40) 4.72 (07:40) 9 2.2 5 1.8 0
07-02-2021 13.4 (16:40) 8.2 (00:00) 10.8 7.78 (18:40) 2.78 (18:50) 0 0 0 0 0
06-02-2021 12.1 (15:50) 8.3 (00:00) 10.2 6.94 (07:40) 2.5 (16:10) 4 0.8 1.8 1.4 0
05-02-2021 17.6 (14:30) 9.1 (00:00) 13.4 8.33 (18:20) 2.5 (18:10) 3.2 0 0 0 3.2
04-02-2021 17.9 (14:20) 8.8 (00:00) 13.3 5.56 (15:40) 2.22 (15:40) 0 0 0 0 0
03-02-2021 15.4 (15:40) 8.1 (00:00) 11.8 3.33 (13:40) 1.39 (13:50) 0 0 0 0 0
02-02-2021 14.3 (16:00) 10 (00:00) 12.2 3.61 (18:30) 1.67 (18:00) 0 0 0 0 0
01-02-2021 17 (15:30) 12 (00:00) 14.5 6.39 (12:10) 3.33 (12:20) 0.2 0.2 0 0 0

Gráficas

Temp. máximas Temp. mínimas Temp. medias Precipitaciones Rachas de viento máximas Velocidades máximas media en intervalos de 10 minutos

Datos horarios

Fecha y hora oficial Temperatura (ºC) Velocidad del viento (km/h) Dirección del viento Racha (km/h) Dirección de racha Precipitación (mm) Presión (hPa) Tendencia (hPa) Humedad (%)
2021-03-02 23:00:00 14.4 6 Nordeste 21 Nordeste 0 -- -- 64
2021-03-02 22:00:00 15 8 Nordeste 15 Nordeste 0 -- -- 64
2021-03-02 21:00:00 15.8 5 Este 14 Nordeste 0 -- -- 60
2021-03-02 20:00:00 16.6 5 Este 12 Nordeste 0 -- -- 57
2021-03-02 19:00:00 18 3 Este 9 Este 0 -- -- 51
2021-03-02 18:00:00 19.2 4 Este 11 Este 0 -- -- 46
2021-03-02 17:00:00 19.9 5 Este 15 Este 0 -- -- 44
2021-03-02 16:00:00 20.6 5 Este 15 Este 0 -- -- 44
2021-03-02 15:00:00 20.5 5 Nordeste 18 Nordeste 0 -- -- 44
2021-03-02 14:00:00 19 5 Nordeste 16 Norte 0 -- -- 46
2021-03-02 13:00:00 17.4 5 Nordeste 10 Este 0 -- -- 52
2021-03-02 12:00:00 16.5 5 Este 13 Este 0 -- -- 57
2021-03-02 11:00:00 13.9 3 Este 12 Nordeste 0 -- -- 66
2021-03-02 10:00:00 11.4 7 Nordeste 13 Nordeste 0 -- -- 74
2021-03-02 09:00:00 9.5 2 Nordeste 10 Nordeste 0 -- -- 79
2021-03-02 08:00:00 9.4 6 Nordeste 13 Nordeste 0 -- -- 79
2021-03-02 07:00:00 9.8 6 Nordeste 14 Norte 0 -- -- 77
2021-03-02 06:00:00 10.3 8 Nordeste 17 Norte 0 -- -- 75
2021-03-02 05:00:00 10.4 9 Nordeste 15 Nordeste 0 -- -- 77
2021-03-02 04:00:00 10.8 2 Nordeste 11 Nordeste 0 -- -- 75
2021-03-02 03:00:00 11.5 3 Este 15 Nordeste 0 -- -- 72
2021-03-02 02:00:00 12.3 9 Nordeste 18 Nordeste 0 -- -- 70
2021-03-02 01:00:00 12.8 9 Nordeste 21 Nordeste 0 -- -- 68
2021-03-02 00:00:00 13.2 8 Nordeste 15 Norte 0 -- -- 67
2021-03-01 23:00:00 13.7 7 Nordeste 17 Este 0 -- -- 65
2021-03-01 22:00:00 13.8 8 Este 15 Nordeste 0 -- -- 63
2021-03-01 21:00:00 13.8 7 Nordeste 16 Nordeste 0 -- -- 64
2021-03-01 20:00:00 14.4 6 Nordeste 14 Este 0 -- -- 61
2021-03-01 19:00:00 15.4 8 Este 21 Este 0 -- -- 58
2021-03-01 18:00:00 16.7 9 Este 23 Este 0 -- -- 55
2021-03-01 17:00:00 18.2 9 Este 24 Este 0 -- -- 49
2021-03-01 16:00:00 18.7 12 Este 28 Sudeste 0 -- -- 47
2021-03-01 15:00:00 19.1 13 Este 34 Este 0 -- -- 47
2021-03-01 14:00:00 18.9 13 Este 30 Este 0 -- -- 48
2021-03-01 13:00:00 17.5 12 Este 27 Este 0 -- -- 54
2021-03-01 12:00:00 16.6 12 Este 27 Nordeste 0 -- -- 55
2021-03-01 11:00:00 14.4 12 Nordeste 32 Nordeste 0 -- -- 64
2021-03-01 10:00:00 11.4 10 Nordeste 23 Nordeste 0 -- -- 75
2021-03-01 09:00:00 9.5 12 Nordeste 19 Nordeste 0 -- -- 80
2021-03-01 08:00:00 9.1 10 Nordeste 19 Nordeste 0 -- -- 84
2021-03-01 07:00:00 9.6 6 Nordeste 14 Nordeste 0 -- -- 83
2021-03-01 06:00:00 10 7 Nordeste 15 Este 0.2 -- -- 84
2021-03-01 05:00:00 10.1 5 Nordeste 16 Este 0.8 -- -- 86
2021-03-01 04:00:00 11 8 Este 18 Este 0.2 -- -- 77
2021-03-01 03:00:00 11.8 7 Nordeste 18 Este 0 -- -- 63
2021-03-01 02:00:00 12.4 3 Sudeste 28 Sudeste 0 -- -- 60
2021-03-01 01:00:00 12.2 10 Este 29 Este 0 -- -- 61
2021-03-01 00:00:00 11.8 11 Nordeste 35 Este 0 -- -- 62
2021-02-28 23:00:00 11.7 10 Nordeste 24 Nordeste 0 -- -- 62
2021-02-28 22:00:00 12.6 9 Nordeste 25 Este 0 -- -- 58
2021-02-28 21:00:00 13.4 11 Este 30 Este 0 -- -- 55
2021-02-28 20:00:00 14.3 11 Este 24 Nordeste 0 -- -- 52
2021-02-28 19:00:00 15.9 9 Este 20 Este 0 -- -- 49
2021-02-28 18:00:00 17.7 7 Este 18 Sudeste 0 -- -- 43
2021-02-28 17:00:00 18.6 6 Este 19 Sudeste 0 -- -- 41
2021-02-28 16:00:00 20.6 10 Este 22 Este 0 -- -- 37
2021-02-28 15:00:00 20.1 6 Este 18 Este 0 -- -- 37
2021-02-28 14:00:00 18.1 3 Sudeste 14 Este 0 -- -- 44
2021-02-28 13:00:00 16.8 5 Este 16 Sudeste 0 -- -- 49
2021-02-28 12:00:00 16.4 9 Este 20 Sudeste 0 -- -- 47
2021-02-28 11:00:00 13.5 8 Nordeste 16 Nordeste 0 -- -- 61
2021-02-28 10:00:00 10.3 6 Nordeste 15 Norte 0 -- -- 73
2021-02-28 09:00:00 8.4 8 Nordeste 16 Nordeste 0 -- -- 80
2021-02-28 08:00:00 7.6 5 Norte 10 Nordeste 0 -- -- 87
2021-02-28 07:00:00 7.6 0 Calma 5 Nordeste 0 -- -- 89
2021-02-28 06:00:00 8.3 2 Norte 9 Norte 0 -- -- 87
2021-02-28 05:00:00 8.8 3 Nordeste 6 Nordeste 0 -- -- 87
2021-02-28 04:00:00 9.3 0 Calma 2 Este 0 -- -- 86
2021-02-28 03:00:00 9.9 0 Calma 4 Oeste 0 -- -- 86
2021-02-28 02:00:00 10.5 0 Calma 3 Este 0 -- -- 82
2021-02-28 01:00:00 11 0 Calma 5 Nordeste 0 -- -- 77
2021-02-28 00:00:00 11.7 0 Calma 4 Norte 0 -- -- 79
2021-02-27 23:00:00 12.2 0 Calma 6 Oeste 0 -- -- 76
2021-02-27 22:00:00 12.6 3 Oeste 8 Oeste 0 -- -- 72
2021-02-27 21:00:00 12.9 0 Calma 4 Sur 0 -- -- 69
2021-02-27 20:00:00 13.7 0 Calma 5 Oeste 0 -- -- 63
2021-02-27 19:00:00 14.9 0 Calma 5 Este 0 -- -- 58
2021-02-27 18:00:00 16.4 0 Calma 7 Sudeste 0 -- -- 50
2021-02-27 17:00:00 17.3 2 Sudeste 10 Nordeste 0 -- -- 44
2021-02-27 16:00:00 16.9 3 Nordeste 13 Este 0 -- -- 48
2021-02-27 15:00:00 17 3 Este 13 Este 0 -- -- 50
2021-02-27 14:00:00 16.3 2 Sur 16 Este 0 -- -- 51
2021-02-27 13:00:00 14.6 3 Sudeste 9 Sudeste 0 -- -- 57
2021-02-27 12:00:00 12.9 4 Este 9 Este 0 -- -- 66
2021-02-27 11:00:00 11.7 4 Nordeste 8 Nordeste 0 -- -- 72
2021-02-27 10:00:00 10.4 3 Este 7 Nordeste 0 -- -- 77
2021-02-27 09:00:00 9.4 5 Nordeste 10 Nordeste 0 -- -- 80
2021-02-27 08:00:00 9.3 0 Calma 6 Nordeste 0 -- -- 88
2021-02-27 07:00:00 9.4 0 Calma 2 Este 0 -- -- 88
2021-02-27 06:00:00 9.6 0 Calma 3 Este 0 -- -- 87
2021-02-27 05:00:00 9.7 3 Nordeste 4 Nordeste 0 -- -- 87
2021-02-27 04:00:00 10 0 Calma 2 Sudeste 0 -- -- 85
2021-02-27 03:00:00 10.5 0 Calma 3 Este 0 -- -- 82
2021-02-27 02:00:00 11.4 0 Calma 6 Oeste 0 -- -- 79
2021-02-27 01:00:00 12.3 0 Calma 10 Noroeste 0 -- -- 77
2021-02-27 00:00:00 12.9 3 Sudoeste 12 Oeste 0 -- -- 74
2021-02-26 23:00:00 13.6 0 Calma 10 Oeste 0 -- -- 69
2021-02-26 22:00:00 14.2 2 Oeste 6 Oeste 0 -- -- 65
2021-02-26 21:00:00 14.9 0 Calma 9 Sudeste 0 -- -- 59
2021-02-26 20:00:00 16.2 3 Este 8 Este 0 -- -- 51
2021-02-26 19:00:00 18.5 3 Norte 9 Nordeste 0 -- -- 42
2021-02-26 18:00:00 20.6 6 Este 13 Este 0 -- -- 36
2021-02-26 17:00:00 21.5 4 Nordeste 12 Nordeste 0 -- -- 36
2021-02-26 16:00:00 21.7 4 Nordeste 14 Nordeste 0 -- -- 35
2021-02-26 15:00:00 21.5 6 Nordeste 17 Nordeste 0 -- -- 39
2021-02-26 14:00:00 19.9 4 Este 17 Este 0 -- -- 43
2021-02-26 13:00:00 18.4 8 Nordeste 26 Este 0 -- -- 47
2021-02-26 12:00:00 17.4 10 Este 25 Este 0 -- -- 47
2021-02-26 11:00:00 15.7 13 Este 25 Este 0 -- -- 52
2021-02-26 10:00:00 12.7 10 Este 21 Nordeste 0 -- -- 61
2021-02-26 09:00:00 10.5 6 Nordeste 23 Nordeste 0 -- -- 68
2021-02-26 08:00:00 10 12 Nordeste 23 Nordeste 0 -- -- 69
2021-02-26 07:00:00 10 12 Nordeste 21 Nordeste 0 -- -- 69
2021-02-26 06:00:00 10.1 11 Nordeste 19 Nordeste 0 -- -- 70
2021-02-26 05:00:00 10.7 11 Nordeste 21 Nordeste 0 -- -- 67
2021-02-26 04:00:00 10.9 12 Nordeste 19 Norte 0 -- -- 68
2021-02-26 03:00:00 11.3 9 Nordeste 15 Nordeste 0 -- -- 68
2021-02-26 02:00:00 11.7 7 Nordeste 12 Nordeste 0 -- -- 66
2021-02-26 01:00:00 11.9 6 Nordeste 12 Nordeste 0 -- -- 66
2021-02-26 00:00:00 12.5 4 Este 14 Este 0 -- -- 65
2021-02-25 23:00:00 12.8 6 Este 12 Este 0 -- -- 64
2021-02-25 22:00:00 13 5 Nordeste 10 Este 0 -- -- 73
2021-02-25 21:00:00 13.8 4 Nordeste 8 Nordeste 0 -- -- 68
2021-02-25 20:00:00 14.8 2 Sudoeste 11 Oeste 0 -- -- 64
2021-02-25 19:00:00 15.5 3 Sudoeste 12 Noroeste 0 -- -- 62
2021-02-25 18:00:00 16.9 3 Sudoeste 12 Sudoeste 0 -- -- 58
2021-02-25 17:00:00 18.6 3 Sudoeste 14 Sudoeste 0 -- -- 52
2021-02-25 16:00:00 19.2 2 Oeste 9 Oeste 0 -- -- 45
2021-02-25 15:00:00 19.1 2 Noroeste 8 Oeste 0 -- -- 45
2021-02-25 14:00:00 18.4 2 Sudoeste 8 Este 0 -- -- 46
2021-02-25 13:00:00 17.8 4 Nordeste 13 Nordeste 0 -- -- 51
2021-02-25 12:00:00 16.3 4 Nordeste 15 Nordeste 0 -- -- 53
2021-02-25 11:00:00 14.4 6 Nordeste 15 Nordeste 0 -- -- 57
2021-02-25 10:00:00 11.7 10 Nordeste 19 Nordeste 0 -- -- 61
2021-02-25 09:00:00 10 10 Nordeste 19 Nordeste 0 -- -- 65
2021-02-25 08:00:00 9.2 9 Norte 19 Nordeste 0 -- -- 66
2021-02-25 07:00:00 9.2 9 Nordeste 17 Nordeste 0 -- -- 66
2021-02-25 06:00:00 9.3 10 Nordeste 19 Nordeste 0 -- -- 65
2021-02-25 05:00:00 9.4 9 Nordeste 17 Nordeste 0 -- -- 66
2021-02-25 04:00:00 9.8 9 Nordeste 17 Nordeste 0 -- -- 65
2021-02-25 03:00:00 10.3 8 Nordeste 16 Norte 0 -- -- 65
2021-02-25 02:00:00 10.5 0 Calma 15 Nordeste 0 -- -- 65
2021-02-25 01:00:00 11.2 9 Nordeste 18 Nordeste 0 -- -- 63
2021-02-25 00:00:00 12 10 Nordeste 19 Nordeste 0 -- -- 58
2021-02-24 23:00:00 12.8 5 Norte 9 Nordeste 0 -- -- 53
2021-02-24 22:00:00 14.3 0 Calma 18 Sudeste 0 -- -- 46
2021-02-24 21:00:00 15.1 6 Sudeste 24 Este 0 -- -- 43
2021-02-24 20:00:00 16.2 9 Sudeste 27 Este 0 -- -- 41
2021-02-24 19:00:00 17.7 11 Este 28 Este 0 -- -- 36
2021-02-24 18:00:00 19.8 10 Este 24 Este 0 -- -- 32
2021-02-24 17:00:00 20.9 5 Sudeste 17 Este 0 -- -- 36
2021-02-24 16:00:00 21.3 8 Este 20 Este 0 -- -- 36
2021-02-24 15:00:00 20.8 9 Este 30 Nordeste 0 -- -- 38
2021-02-24 14:00:00 -- 15 Este 36 Sudeste 0 -- -- --
2021-02-24 13:00:00 18.1 15 Sudeste 36 Este 0 -- -- 48
2021-02-24 12:00:00 16.9 12 Este 26 Este 0 -- -- 55
2021-02-24 11:00:00 14.1 9 Nordeste 19 Este 0 -- -- 63
2021-02-24 10:00:00 11.4 10 Nordeste 19 Nordeste 0 -- -- 69
2021-02-24 09:00:00 9.8 6 Este 18 Nordeste 0 -- -- 73
2021-02-24 08:00:00 9 9 Nordeste 19 Norte 0 -- -- 74
2021-02-24 07:00:00 8.9 9 Nordeste 15 Nordeste 0 -- -- 74
2021-02-24 06:00:00 9 2 Norte 16 Nordeste 0 -- -- 73
2021-02-24 05:00:00 9.6 11 Nordeste 19 Nordeste 0 -- -- 71
2021-02-24 04:00:00 9.9 7 Nordeste 20 Este 0 -- -- 69
2021-02-24 03:00:00 9.8 11 Nordeste 17 Nordeste 0 -- -- 71
2021-02-24 02:00:00 10.6 7 Nordeste 21 Este 0 -- -- 67
2021-02-24 01:00:00 11 11 Este 21 Nordeste 0 -- -- 65
2021-02-24 00:00:00 11.1 9 Nordeste 18 Nordeste 0 -- -- 63
2021-02-23 23:00:00 11.6 7 Nordeste 15 Nordeste 0 -- -- 62
2021-02-23 22:00:00 12.2 8 Nordeste 15 Nordeste 0 -- -- 56
2021-02-23 21:00:00 12.6 6 Nordeste 11 Nordeste 0 -- -- 55
2021-02-23 20:00:00 13.5 4 Nordeste 10 Nordeste 0 -- -- 54
2021-02-23 19:00:00 15.3 5 Nordeste 14 Nordeste 0 -- -- 49
2021-02-23 18:00:00 17 9 Nordeste 22 Este 0 -- -- 42
2021-02-23 17:00:00 18.3 6 Nordeste 18 Nordeste 0 -- -- 40
2021-02-23 16:00:00 18.5 8 Nordeste 15 Nordeste 0 -- -- 41
2021-02-23 15:00:00 17.8 7 Este 18 Este 0 -- -- 41
2021-02-23 14:00:00 16.3 5 Nordeste 18 Nordeste 0 -- -- 45
2021-02-23 13:00:00 14.8 8 Este 20 Este 0 -- -- 55
2021-02-23 12:00:00 13.7 9 Nordeste 16 Este 0 -- -- 61
2021-02-23 11:00:00 10 5 Nordeste 10 Nordeste 0 -- -- 76
2021-02-23 10:00:00 6.7 4 Nordeste 8 Nordeste 0 -- -- 87
2021-02-23 09:00:00 4.4 0 Calma 12 Nordeste 0 -- -- 95
2021-02-23 08:00:00 3.6 0 Calma 6 Este 0 -- -- 92
2021-02-23 07:00:00 3.7 4 Nordeste 8 Este 0 -- -- 93
2021-02-23 06:00:00 4 0 Calma 2 Oeste 0 -- -- 90
2021-02-23 05:00:00 4.7 3 Norte 13 Nordeste 0 -- -- 89
2021-02-23 04:00:00 4.8 4 Norte 11 Nordeste 0 -- -- 89
2021-02-23 03:00:00 5 3 Norte 9 Nordeste 0 -- -- 87
2021-02-23 02:00:00 5.5 0 Calma 2 Nordeste 0 -- -- 89
2021-02-23 01:00:00 6.3 0 Calma 2 Norte 0 -- -- 85
2021-02-23 00:00:00 6.8 0 Calma 3 Norte 0 -- -- 85
2021-02-22 23:00:00 7.3 0 Calma 0 Calma 0 -- -- 85
2021-02-22 22:00:00 8.5 0 Calma 5 Oeste 0 -- -- 80
2021-02-22 21:00:00 9.6 3 Oeste 8 Noroeste 0 -- -- 74
2021-02-22 20:00:00 10.4 0 Calma 7 Sudoeste 0 -- -- 70
2021-02-22 19:00:00 11.6 3 Sudoeste 17 Sudoeste 0 -- -- 65
2021-02-22 18:00:00 12.7 6 Sudoeste 19 Oeste 0 -- -- 58
2021-02-22 17:00:00 13.2 6 Sudoeste 20 Sur 0 -- -- 57
2021-02-22 16:00:00 13.1 8 Sudoeste 18 Sudoeste 0 -- -- 57
2021-02-22 15:00:00 13 7 Sudoeste 18 Sudoeste 0 -- -- 58
2021-02-22 14:00:00 12 8 Sudoeste 18 Sudoeste 0 -- -- 65
2021-02-22 13:00:00 10.3 6 Sudoeste 17 Sudoeste 0 -- -- 67
2021-02-22 12:00:00 9.1 6 Sudoeste 15 Sudoeste 0 -- -- 80
2021-02-22 11:00:00 6.8 4 Sudoeste 16 Sudoeste 0 -- -- 91
2021-02-22 10:00:00 6.1 6 Sudoeste 21 Oeste 0 -- -- 92
2021-02-22 09:00:00 5.8 6 Sudoeste 16 Oeste 0 -- -- 95
2021-02-22 08:00:00 5.4 4 Sudoeste 14 Sur 0 -- -- 97
2021-02-22 07:00:00 5.6 4 Sudoeste 13 Sudoeste 0 -- -- 97
2021-02-22 06:00:00 6 3 Sudoeste 14 Sudoeste 0.2 -- -- 96
2021-02-22 05:00:00 6.5 4 Sudoeste 11 Sudoeste 0 -- -- 95
2021-02-22 04:00:00 6.8 3 Sudoeste 10 Sudoeste 0 -- -- 95
2021-02-22 03:00:00 7.2 3 Sudoeste 13 Oeste 0 -- -- 94
2021-02-22 02:00:00 7.5 4 Sudoeste 11 Sudoeste 0 -- -- 95
2021-02-22 01:00:00 7.8 2 Sudoeste 9 Sudoeste 0 -- -- 95
2021-02-22 00:00:00 8 3 Sudoeste 8 Sudoeste 0 -- -- 95
2021-02-21 23:00:00 8 2 Sudoeste 14 Oeste 0 -- -- 95
2021-02-21 22:00:00 8.2 4 Sudoeste 18 Oeste 0 -- -- 94
2021-02-21 21:00:00 8.3 7 Sudoeste 22 Sudoeste 0 -- -- 95
2021-02-21 20:00:00 8.7 9 Sudoeste 25 Sudoeste 0.2 -- -- 96
2021-02-21 19:00:00 9.3 10 Sur 18 Sur 0.4 -- -- 93
2021-02-21 18:00:00 9.8 4 Sudoeste 17 Sudoeste 3.2 -- -- 92
2021-02-21 17:00:00 11 4 Sudoeste 15 Sudoeste 2.6 -- -- 94
2021-02-21 16:00:00 11.6 6 Sudoeste 18 Sudoeste 0.8 -- -- 92
2021-02-21 15:00:00 12.9 3 Oeste 12 Noroeste 0.4 -- -- 81
2021-02-21 14:00:00 13.8 3 Sudoeste 15 Oeste 0 -- -- 68
2021-02-21 13:00:00 14 3 Noroeste 9 Noroeste 0 -- -- 68
2021-02-21 12:00:00 13.4 6 Nordeste 10 Nordeste 0 -- -- 68
2021-02-21 11:00:00 12.2 3 Este 8 Este 0 -- -- 73
2021-02-21 10:00:00 11.2 0 Calma 6 Este 0 -- -- 75
2021-02-21 09:00:00 10.7 0 Calma 5 Nordeste 0 -- -- 76
2021-02-21 08:00:00 10.6 3 Sudoeste 17 Oeste 0 -- -- 76
2021-02-21 07:00:00 10.7 4 Noroeste 13 Noroeste 0 -- -- 75
2021-02-21 06:00:00 11.9 3 Oeste 17 Norte 0 -- -- 62
2021-02-21 05:00:00 12.9 10 Nordeste 15 Nordeste 0 -- -- 54
2021-02-21 04:00:00 12.9 0 Calma 10 Norte 0 -- -- 54
2021-02-21 03:00:00 13.2 7 Norte 14 Norte 0 -- -- 51
2021-02-21 02:00:00 12.8 5 Norte 8 Norte 0 -- -- 53
2021-02-21 01:00:00 13 2 Noroeste 15 Nordeste 0 -- -- 58
2021-02-21 00:00:00 12.9 5 Norte 17 Nordeste 0 -- -- 59
2021-02-20 23:00:00 12.8 5 Norte 13 Nordeste 0 -- -- 62
2021-02-20 22:00:00 13.9 0 Calma 4 Norte 0 -- -- 62
2021-02-20 21:00:00 14.9 0 Calma 5 Nordeste 0 -- -- 56
2021-02-20 20:00:00 16.5 3 Oeste 4 Oeste 0 -- -- 51
2021-02-20 19:00:00 18.3 0 Calma 6 Noroeste 0 -- -- 46
2021-02-20 18:00:00 20.2 3 Oeste 10 Oeste 0 -- -- 39
2021-02-20 17:00:00 21 3 Oeste 14 Oeste 0 -- -- 37
2021-02-20 16:00:00 22.2 3 Sudoeste 10 Noroeste 0 -- -- 31
2021-02-20 15:00:00 22.1 2 Sudoeste 8 Este 0 -- -- 31
2021-02-20 14:00:00 20.4 4 Este 11 Este 0 -- -- 37
2021-02-20 13:00:00 17.9 3 Norte 10 Sudeste 0 -- -- 44
2021-02-20 12:00:00 16.2 5 Este 9 Nordeste 0 -- -- 53
2021-02-20 11:00:00 11.8 2 Nordeste 10 Este 0 -- -- 71
2021-02-20 10:00:00 8.6 3 Este 8 Nordeste 0 -- -- 87
2021-02-20 09:00:00 6.3 0 Calma 4 Este 0 -- -- 92
2021-02-20 08:00:00 6.3 0 Calma 3 Norte 0 -- -- 91
2021-02-20 07:00:00 6.5 0 Calma 4 Sudeste 0 -- -- 90
2021-02-20 06:00:00 7.6 0 Calma 4 Oeste 0 -- -- 88
2021-02-20 05:00:00 8 0 Calma 10 Norte 0 -- -- 87
2021-02-20 04:00:00 8.3 5 Norte 8 Nordeste 0 -- -- 86
2021-02-20 03:00:00 8.8 3 Nordeste 7 Nordeste 0 -- -- 85
2021-02-20 02:00:00 9.4 0 Calma 5 Norte 0 -- -- 83
2021-02-20 01:00:00 10.4 0 Calma 6 Este 0 -- -- 78
2021-02-20 00:00:00 11.5 2 Oeste 8 Oeste 0 -- -- 77
2021-02-19 23:00:00 12.4 4 Oeste 10 Oeste 0 -- -- 74
2021-02-19 22:00:00 13.1 0 Calma 3 Noroeste 0 -- -- 67
2021-02-19 21:00:00 14.6 2 Oeste 9 Oeste 0 -- -- 60
2021-02-19 20:00:00 15.7 3 Oeste 8 Sudoeste 0 -- -- 56
2021-02-19 19:00:00 17.5 0 Calma 9 Oeste 0 -- -- 48
2021-02-19 18:00:00 20 4 Sudoeste 12 Sudoeste 0 -- -- 40
2021-02-19 17:00:00 21.5 4 Sudoeste 12 Noroeste 0 -- -- 36
2021-02-19 16:00:00 21.6 4 Noroeste 8 Noroeste 0 -- -- 30
2021-02-19 15:00:00 21.1 4 Oeste 10 Norte 0 -- -- 32
2021-02-19 14:00:00 18.8 3 Noroeste 8 Este 0 -- -- 37
2021-02-19 13:00:00 16.4 4 Este 9 Nordeste 0 -- -- 50
2021-02-19 12:00:00 14.9 4 Este 9 Nordeste 0 -- -- 67
2021-02-19 11:00:00 11.3 2 Sudeste 6 Este 0 -- -- 85
2021-02-19 10:00:00 8.3 2 Sudeste 6 Sudeste 0 -- -- 93
2021-02-19 09:00:00 6.7 0 Calma 3 Sudeste 0 -- -- 94
2021-02-19 08:00:00 7.1 0 Calma 10 Norte 0 -- -- 93
2021-02-19 07:00:00 7.7 3 Este 6 Nordeste 0 -- -- 92
2021-02-19 06:00:00 8.7 4 Norte 11 Nordeste 0 -- -- 94
2021-02-19 05:00:00 9.3 4 Nordeste 6 Nordeste 0 -- -- 96
2021-02-19 04:00:00 9.2 3 Nordeste 8 Nordeste 0 -- -- 96
2021-02-19 03:00:00 8.6 3 Norte 9 Nordeste 0 -- -- 92
2021-02-19 02:00:00 9 0 Calma 4 Nordeste 0 -- -- 92
2021-02-19 01:00:00 9.6 0 Calma 4 Sudeste 0 -- -- 89
2021-02-19 00:00:00 10.7 0 Calma 4 Oeste 0 -- -- 89
2021-02-18 23:00:00 11.3 0 Calma 4 Oeste 0 -- -- 87
2021-02-18 22:00:00 12.3 0 Calma 2 Oeste 0 -- -- 84
2021-02-18 21:00:00 13.6 0 Calma 5 Oeste 0 -- -- 77
2021-02-18 20:00:00 14.9 3 Oeste 8 Oeste 0 -- -- 72
2021-02-18 19:00:00 16.7 2 Sudoeste 8 Oeste 0 -- -- 64
2021-02-18 18:00:00 18.3 3 Sudoeste 13 Sudoeste 0 -- -- 56
2021-02-18 17:00:00 19 4 Sur 14 Sur 0 -- -- 54
2021-02-18 16:00:00 19 8 Sur 17 Sudoeste 0 -- -- 54
2021-02-18 15:00:00 18.8 6 Sudoeste 13 Oeste 0 -- -- 54
2021-02-18 14:00:00 17.2 4 Sudoeste 10 Noroeste 0 -- -- 58
2021-02-18 13:00:00 15.2 3 Sur 7 Sur 0 -- -- 63
2021-02-18 12:00:00 14 2 Noroeste 5 Sudoeste 0 -- -- 64
2021-02-18 11:00:00 11.1 2 Este 8 Este 0 -- -- 73
2021-02-18 10:00:00 7.9 2 Este 6 Este 0 -- -- 82
2021-02-18 09:00:00 6 0 Calma 3 Sur 0 -- -- 90
2021-02-18 08:00:00 5.7 0 Calma 2 Sudeste 0 -- -- 88
2021-02-18 07:00:00 6 0 Calma 2 Sudoeste 0 -- -- 88
2021-02-18 06:00:00 6.7 0 Calma 5 Este 0 -- -- 85
2021-02-18 05:00:00 7.3 0 Calma 3 Oeste 0 -- -- 86
2021-02-18 04:00:00 8 0 Calma 3 Norte 0 -- -- 83
2021-02-18 03:00:00 8.7 0 Calma 2 Norte 0 -- -- 80
2021-02-18 02:00:00 9.4 0 Calma 4 Norte 0 -- -- 77
2021-02-18 01:00:00 10.2 2 Norte 5 Norte 0 -- -- 75
2021-02-18 00:00:00 11.1 0 Calma 7 Norte 0 -- -- 75
2021-02-17 23:00:00 11.9 3 Norte 6 Nordeste 0 -- -- 72
2021-02-17 22:00:00 13.4 2 Norte 6 Nordeste 0 -- -- 66
2021-02-17 21:00:00 15 2 Noroeste 4 Oeste 0 -- -- 56
2021-02-17 20:00:00 16.1 0 Calma 3 Este 0 -- -- 55
2021-02-17 19:00:00 18.4 0 Calma 3 Sur 0 -- -- 46
2021-02-17 18:00:00 21 3 Sur 6 Sur 0 -- -- 42
2021-02-17 17:00:00 22 0 Calma 6 Sur 0 -- -- 33
2021-02-17 16:00:00 22.1 2 Sur 6 Sur 0 -- -- 35
2021-02-17 15:00:00 21.6 2 Norte 8 Este 0 -- -- 37
2021-02-17 14:00:00 19.1 4 Este 8 Este 0 -- -- 44
2021-02-17 13:00:00 16.1 3 Este 8 Nordeste 0 -- -- 56
2021-02-17 12:00:00 14.3 2 Sur 6 Este 0 -- -- 62
2021-02-17 11:00:00 10.8 3 Sudeste 6 Este 0 -- -- 75
2021-02-17 10:00:00 7.7 3 Este 9 Nordeste 0 -- -- 85
2021-02-17 09:00:00 6.1 4 Nordeste 9 Nordeste 0 -- -- 89
2021-02-17 08:00:00 5.4 0 Calma 4 Nordeste 0 -- -- 89
2021-02-17 07:00:00 6.1 0 Calma 4 Nordeste 0 -- -- 87
2021-02-17 06:00:00 6.7 4 Nordeste 10 Norte 0 -- -- 86
2021-02-17 05:00:00 6.6 0 Calma 2 Este 0 -- -- 88
2021-02-17 04:00:00 7.2 0 Calma 0 Calma 0 -- -- 87
2021-02-17 03:00:00 7.7 0 Calma 2 Oeste 0 -- -- 86
2021-02-17 02:00:00 8.3 0 Calma 6 Nordeste 0 -- -- 82
2021-02-17 01:00:00 9 0 Calma 5 Nordeste 0 -- -- 80
2021-02-17 00:00:00 10 0 Calma 5 Norte 0 -- -- 76
2021-02-16 23:00:00 10.5 0 Calma 4 Norte 0 -- -- 75
2021-02-16 22:00:00 11.6 0 Calma 4 Norte 0 -- -- 69
2021-02-16 21:00:00 12.8 3 Nordeste 4 Norte 0 -- -- 63
2021-02-16 20:00:00 14.3 0 Calma 2 Norte 0 -- -- 58
2021-02-16 19:00:00 16.2 0 Calma 6 Sur 0 -- -- 51
2021-02-16 18:00:00 18.4 3 Sur 8 Oeste 0 -- -- 42
2021-02-16 17:00:00 19.2 4 Sudoeste 13 Oeste 0 -- -- 40
2021-02-16 16:00:00 19.5 3 Sudoeste 9 Noroeste 0 -- -- 38
2021-02-16 15:00:00 18.9 3 Sudoeste 6 Sudoeste 0 -- -- 41
2021-02-16 14:00:00 16.6 3 Sur 10 Este 0 -- -- 54
2021-02-16 13:00:00 14.5 3 Sudeste 9 Sudeste 0 -- -- 60
2021-02-16 12:00:00 13.7 2 Sudeste 9 Este 0 -- -- 62
2021-02-16 11:00:00 11.2 3 Sudeste 10 Este 0 -- -- 71
2021-02-16 10:00:00 8.3 4 Este 8 Nordeste 0 -- -- 79
2021-02-16 09:00:00 7.1 4 Nordeste 11 Este 0 -- -- 82
2021-02-16 08:00:00 6.4 3 Norte 8 Noroeste 0 -- -- 84
2021-02-16 07:00:00 6.8 4 Nordeste 12 Nordeste 0 -- -- 82
2021-02-16 06:00:00 7.5 8 Nordeste 14 Nordeste 0 -- -- 81
2021-02-16 05:00:00 7.8 6 Nordeste 11 Nordeste 0 -- -- 80
2021-02-16 04:00:00 8.4 5 Nordeste 13 Nordeste 0 -- -- 78
2021-02-16 03:00:00 9 9 Nordeste 14 Nordeste 0 -- -- 77
2021-02-16 02:00:00 9.6 8 Nordeste 16 Norte 0 -- -- 75
2021-02-16 01:00:00 10.3 10 Nordeste 15 Nordeste 0 -- -- 73
2021-02-16 00:00:00 11.1 9 Nordeste 15 Nordeste 0 -- -- 70
2021-02-15 23:00:00 11.4 8 Nordeste 14 Nordeste 0 -- -- 70
2021-02-15 22:00:00 12.2 2 Nordeste 10 Nordeste 0 -- -- 67
2021-02-15 21:00:00 13.3 6 Nordeste 10 Nordeste 0 -- -- 64
2021-02-15 20:00:00 14.8 3 Nordeste 10 Nordeste 0 -- -- 58
2021-02-15 19:00:00 16.7 4 Nordeste 11 Este 0 -- -- 52
2021-02-15 18:00:00 18.5 5 Este 12 Este 0 -- -- 45
2021-02-15 17:00:00 19.9 5 Este 14 Nordeste 0 -- -- 42
2021-02-15 16:00:00 20.4 6 Este 19 Este 0 -- -- 40
2021-02-15 15:00:00 19.9 7 Nordeste 19 Este 0 -- -- 43
2021-02-15 14:00:00 18.5 10 Nordeste 23 Este 0 -- -- 47
2021-02-15 13:00:00 16.9 9 Este 19 Este 0 -- -- 51
2021-02-15 12:00:00 16 5 Nordeste 14 Este 0 -- -- 55
2021-02-15 11:00:00 12.9 6 Nordeste 15 Nordeste 0 -- -- 68
2021-02-15 10:00:00 10 9 Nordeste 16 Nordeste 0 -- -- 77
2021-02-15 09:00:00 8.7 10 Nordeste 17 Nordeste 0 -- -- 80
2021-02-15 08:00:00 8.4 9 Nordeste 17 Norte 0 -- -- 80
2021-02-15 07:00:00 8.7 9 Nordeste 18 Nordeste 0 -- -- 80
2021-02-15 06:00:00 8.9 10 Nordeste 17 Nordeste 0 -- -- 80
2021-02-15 05:00:00 9 9 Nordeste 17 Nordeste 0 -- -- 79
2021-02-15 04:00:00 9.2 6 Norte 12 Norte 0 -- -- 79
2021-02-15 03:00:00 9.8 5 Nordeste 12 Nordeste 0 -- -- 77
2021-02-15 02:00:00 10.3 5 Norte 11 Norte 0 -- -- 75
2021-02-15 01:00:00 10.5 4 Nordeste 13 Nordeste 0 -- -- 75
2021-02-15 00:00:00 10.9 3 Este 9 Norte 0 -- -- 76
2021-02-14 23:00:00 11.7 0 Calma 8 Norte 0 -- -- 71
2021-02-14 22:00:00 12.5 2 Norte 5 Nordeste 0 -- -- 68
2021-02-14 21:00:00 13.5 4 Norte 7 Este 0 -- -- 59
2021-02-14 20:00:00 15 0 Calma 3 Noroeste 0 -- -- 55
2021-02-14 19:00:00 17 0 Calma 3 Sudoeste 0 -- -- 50
2021-02-14 18:00:00 18.8 0 Calma 6 Este 0 -- -- 39
2021-02-14 17:00:00 20.4 2 Sur 11 Nordeste 0 -- -- 36
2021-02-14 16:00:00 20.9 5 Norte 13 Este 0 -- -- 38
2021-02-14 15:00:00 20.8 6 Este 18 Nordeste 0 -- -- 42
2021-02-14 14:00:00 18.5 8 Nordeste 17 Este 0 -- -- 44
2021-02-14 13:00:00 16.6 6 Nordeste 14 Nordeste 0 -- -- 52
2021-02-14 12:00:00 15.3 5 Nordeste 14 Nordeste 0 -- -- 59
2021-02-14 11:00:00 11.8 6 Nordeste 12 Nordeste 0 -- -- 74
2021-02-14 10:00:00 8.6 2 Este 11 Nordeste 0 -- -- 82
2021-02-14 09:00:00 6.1 3 Este 10 Nordeste 0 -- -- 92
2021-02-14 08:00:00 5.7 3 Nordeste 6 Nordeste 0 -- -- 91
2021-02-14 07:00:00 5.8 0 Calma 4 Nordeste 0 -- -- 91
2021-02-14 06:00:00 6.2 0 Calma 8 Nordeste 0 -- -- 90
2021-02-14 05:00:00 6.6 0 Calma 3 Sudoeste 0 -- -- 90
2021-02-14 04:00:00 7.3 0 Calma 3 Sudoeste 0 -- -- 89
2021-02-14 03:00:00 8.2 0 Calma 10 Nordeste 0 -- -- 86
2021-02-14 02:00:00 8.4 0 Calma 5 Norte 0 -- -- 90
2021-02-14 01:00:00 9.1 6 Nordeste 10 Nordeste 0 -- -- 87
2021-02-14 00:00:00 9.8 0 Calma 3 Oeste 0 -- -- 89
2021-02-13 23:00:00 10.6 0 Calma 7 Norte 0 -- -- 86
2021-02-13 22:00:00 11.4 2 Nordeste 8 Nordeste 0 -- -- 82
2021-02-13 21:00:00 12.4 0 Calma 8 Nordeste 0 -- -- 77
2021-02-13 20:00:00 13.5 0 Calma 4 Oeste 0 -- -- 73
2021-02-13 19:00:00 15.1 0 Calma 7 Sudoeste 0 -- -- 64
2021-02-13 18:00:00 16.8 3 Sur 9 Sur 0 -- -- 58
2021-02-13 17:00:00 17.5 3 Sur 10 Oeste 0 -- -- 56
2021-02-13 16:00:00 17.7 4 Sudoeste 9 Sur 0 -- -- 56
2021-02-13 15:00:00 16.9 2 Sudoeste 10 Oeste 0 -- -- 57
2021-02-13 14:00:00 15.5 4 Sudeste 9 Sudeste 0 -- -- 65
2021-02-13 13:00:00 14.6 3 Sudeste 8 Este 0 -- -- 66
2021-02-13 08:00:00 -- -- -- -- -- -- -- -- --
2021-02-13 07:00:00 6.7 0 Calma 5 Nordeste 0 -- -- 93
2021-02-13 06:00:00 7.1 2 Norte 8 Nordeste 0 -- -- 91
2021-02-13 05:00:00 7.5 0 Calma 14 Nordeste 0 -- -- 89
2021-02-13 04:00:00 8 8 Nordeste 10 Nordeste 0 -- -- 90
2021-02-13 03:00:00 8.1 4 Nordeste 7 Nordeste 0 -- -- 90
2021-02-13 02:00:00 8.4 0 Calma 3 Norte 0 -- -- 88
2021-02-13 01:00:00 8.9 0 Calma 5 Nordeste 0 -- -- 87
2021-02-13 00:00:00 9.8 0 Calma 4 Oeste 0 -- -- 82
2021-02-12 23:00:00 10.6 0 Calma 10 Oeste 0 -- -- 78
2021-02-12 22:00:00 11.6 5 Oeste 10 Oeste 0 -- -- 71
2021-02-12 21:00:00 12.5 3 Noroeste 9 Noroeste 0 -- -- 67
2021-02-12 20:00:00 13.4 6 Noroeste 12 Noroeste 0 -- -- 66
2021-02-12 19:00:00 14.9 4 Oeste 18 Oeste 0 -- -- 60
2021-02-12 18:00:00 16.4 8 Oeste 22 Noroeste 0 -- -- 53
2021-02-12 17:00:00 17.2 13 Oeste 25 Oeste 0 -- -- 50
2021-02-12 16:00:00 17.8 9 Sudoeste 27 Noroeste 0 -- -- 49
2021-02-12 15:00:00 17.4 7 Oeste 24 Oeste 0 -- -- 53
2021-02-12 14:00:00 16.8 5 Oeste 24 Oeste 0 -- -- 56
2021-02-12 13:00:00 15.6 9 Oeste 29 Oeste 0 -- -- 61
2021-02-12 12:00:00 15.1 8 Oeste 22 Oeste 0 -- -- 72
2021-02-12 11:00:00 14 6 Sudoeste 17 Sudoeste 0 -- -- 95
2021-02-12 10:00:00 12.7 3 Sudoeste 11 Sudoeste 4.6 -- -- 99
2021-02-12 09:00:00 12.5 5 Sudoeste 15 Oeste 0.2 -- -- 99
2021-02-12 08:00:00 12.6 5 Sudoeste 16 Sudoeste 0.2 -- -- 98
2021-02-12 07:00:00 12.7 4 Sudoeste 21 Oeste 0 -- -- 96
2021-02-12 06:00:00 12.7 4 Sudoeste 14 Sudoeste 0 -- -- 97
2021-02-12 05:00:00 12.7 5 Sudoeste 14 Sudoeste 0 -- -- 98
2021-02-12 04:00:00 12.8 3 Sudoeste 8 Sudoeste 0 -- -- 98
2021-02-12 03:00:00 12.6 0 Calma 4 Sudoeste 0 -- -- 96
2021-02-12 02:00:00 12.7 3 Oeste 7 Noroeste 0 -- -- 96
2021-02-12 01:00:00 13 0 Calma 6 Sudoeste 0 -- -- 92
2021-02-12 00:00:00 13.6 2 Sudoeste 6 Sur 0 -- -- 92
2021-02-11 23:00:00 13.7 2 Sudoeste 8 Sudoeste 0 -- -- 91
2021-02-11 22:00:00 14.3 3 Sudoeste 10 Sudoeste 0 -- -- 88
2021-02-11 21:00:00 14.8 0 Calma 13 Oeste 0 -- -- 84
2021-02-11 20:00:00 15.2 3 Oeste 8 Oeste 0 -- -- 84
2021-02-11 19:00:00 15.8 3 Oeste 10 Oeste 0 -- -- 80
2021-02-11 18:00:00 16.5 3 Sudoeste 10 Oeste 0 -- -- 75
2021-02-11 17:00:00 16.9 3 Sur 9 Sudoeste 0 -- -- 74
2021-02-11 16:00:00 18 3 Sur 8 Oeste 0 -- -- 70
2021-02-11 15:00:00 17.2 3 Sudoeste 11 Sudoeste 0 -- -- 72
2021-02-11 14:00:00 16.4 4 Sudoeste 14 Sudoeste 0 -- -- 82
2021-02-11 13:00:00 15.3 6 Oeste 16 Oeste 0 -- -- 89
2021-02-11 12:00:00 14.6 3 Oeste 10 Sudoeste 0 -- -- 95
2021-02-11 11:00:00 13.9 3 Sudoeste 11 Sudoeste 0 -- -- 99
2021-02-11 10:00:00 13.3 2 Sudoeste 8 Sudoeste 0.2 -- -- 100
2021-02-11 09:00:00 13.1 4 Sudoeste 9 Oeste 0.2 -- -- 100
2021-02-11 08:00:00 13.1 0 Calma 9 Sudoeste 0.4 -- -- 100
2021-02-11 07:00:00 13.1 3 Sudoeste 10 Oeste 1 -- -- 99
2021-02-11 06:00:00 13.2 3 Sudoeste 6 Sudoeste 0.8 -- -- 99
2021-02-11 05:00:00 13.2 2 Sudoeste 9 Sudoeste 0.8 -- -- 99
2021-02-11 04:00:00 13.3 0 Calma 6 Sudoeste 1.4 -- -- 99
2021-02-11 03:00:00 13.3 2 Sudoeste 9 Sudoeste 0 -- -- 99
2021-02-11 02:00:00 13.3 3 Sudoeste 13 Sudoeste 0 -- -- 99
2021-02-11 01:00:00 13.3 4 Sudoeste 12 Oeste 0.2 -- -- 99
2021-02-11 00:00:00 12.9 0 Calma 4 Noroeste 2.8 -- -- 97
2021-02-10 23:00:00 13 0 Calma 4 Norte 0 -- -- 96
2021-02-10 22:00:00 13.1 0 Calma 4 Oeste 0 -- -- 95
2021-02-10 21:00:00 12.9 0 Calma 3 Sur 0 -- -- 92
2021-02-10 20:00:00 13.2 2 Sudoeste 12 Oeste 0 -- -- 89
2021-02-10 19:00:00 13.8 3 Sudoeste 17 Oeste 0 -- -- 85
2021-02-10 18:00:00 14.4 5 Oeste 26 Noroeste 0 -- -- 83
2021-02-10 17:00:00 14.9 5 Noroeste 13 Oeste 0 -- -- 86
2021-02-10 16:00:00 14.3 4 Oeste 17 Oeste 0 -- -- 91
2021-02-10 15:00:00 14.7 4 Sudoeste 19 Sudoeste 0 -- -- 89
2021-02-10 14:00:00 13.8 5 Oeste 16 Oeste 0 -- -- 92
2021-02-10 13:00:00 13.2 4 Sudoeste 13 Oeste 0 -- -- 96
2021-02-10 12:00:00 12.2 4 Oeste 18 Noroeste 1 -- -- 98
2021-02-10 11:00:00 11.4 4 Noroeste 16 Oeste 4.8 -- -- 98
2021-02-10 10:00:00 11.5 5 Oeste 12 Oeste 3 -- -- 99
2021-02-10 09:00:00 11.4 3 Sudoeste 21 Oeste 4 -- -- 99
2021-02-10 08:00:00 11.2 6 Sudoeste 22 Sudoeste 2.4 -- -- 99
2021-02-10 07:00:00 11.1 7 Sudoeste 30 Sudoeste 1.8 -- -- 98
2021-02-10 06:00:00 11.1 8 Sudoeste 30 Oeste 0 -- -- 93
2021-02-10 05:00:00 11 5 Sudoeste 23 Oeste 0 -- -- 92
2021-02-10 04:00:00 10.6 7 Sudoeste 24 Oeste 0 -- -- 91
2021-02-10 03:00:00 10.6 7 Sudoeste 33 Oeste 0 -- -- 91
2021-02-10 02:00:00 11.1 8 Sudoeste 30 Sudoeste 0 -- -- 91
2021-02-10 01:00:00 11.3 12 Sudoeste 35 Sudoeste 0 -- -- 91
2021-02-10 00:00:00 11.6 8 Sudoeste 25 Sudoeste 0.2 -- -- 96
2021-02-09 23:00:00 11.8 7 Sudoeste 24 Sudoeste 0.6 -- -- 98
2021-02-09 22:00:00 12.1 10 Sudoeste 32 Oeste 1 -- -- 97
2021-02-09 21:00:00 11.6 8 Sudoeste 27 Sudoeste 6.6 -- -- 99
2021-02-09 20:00:00 11.7 8 Sudoeste 27 Sudoeste 2 -- -- 98
2021-02-09 19:00:00 11.7 8 Sudoeste 36 Sur 0.8 -- -- 95
2021-02-09 18:00:00 11.9 10 Sudoeste 36 Sudoeste 0 -- -- 91
2021-02-09 17:00:00 11.9 10 Sudoeste 32 Sudoeste 0.8 -- -- 94
2021-02-09 16:00:00 12.5 12 Sudoeste 39 Sudoeste 0.4 -- -- 92
2021-02-09 15:00:00 13.8 17 Sur 41 Sudoeste 0 -- -- 75
2021-02-09 14:00:00 13.8 13 Sudoeste 39 Oeste 0 -- -- 77
2021-02-09 13:00:00 13.1 13 Sudoeste 35 Sudoeste 0 -- -- 79
2021-02-09 12:00:00 12.6 11 Sur 31 Oeste 0 -- -- 77
2021-02-09 11:00:00 12 13 Sur 26 Sur 0 -- -- 78
2021-02-09 10:00:00 10.6 7 Sudoeste 15 Sudoeste 0 -- -- 90
2021-02-09 09:00:00 9.5 4 Sudoeste 17 Sudoeste 0.4 -- -- 97
2021-02-09 08:00:00 9.4 6 Sur 14 Sur 0.2 -- -- 98
2021-02-09 07:00:00 9.5 5 Sur 12 Oeste 0 -- -- 96
2021-02-09 06:00:00 9.7 5 Sudoeste 14 Sur 0 -- -- 93
2021-02-09 05:00:00 9.6 3 Sur 13 Sudoeste 0 -- -- 95
2021-02-09 04:00:00 9.6 4 Sudoeste 15 Sudoeste 0 -- -- 93
2021-02-09 03:00:00 9.8 4 Sudoeste 21 Sudoeste 0 -- -- 92
2021-02-09 02:00:00 10.2 6 Sudoeste 24 Sudoeste 0 -- -- 91
2021-02-09 01:00:00 10.4 5 Sudoeste 24 Sudoeste 0 -- -- 92
2021-02-09 00:00:00 10.5 6 Sudoeste 21 Sudoeste 0 -- -- 91
2021-02-08 23:00:00 10.7 5 Sudoeste 22 Sudoeste 0 -- -- 91
2021-02-08 22:00:00 10.6 6 Sudoeste 18 Sudoeste 0 -- -- 90
2021-02-08 21:00:00 10.4 3 Sudoeste 15 Oeste 0 -- -- 88
2021-02-08 20:00:00 10.5 5 Oeste 22 Oeste 0 -- -- 87
2021-02-08 19:00:00 10.9 5 Sudoeste 18 Oeste 0 -- -- 87
2021-02-08 18:00:00 11.2 8 Sudoeste 23 Sudoeste 1 -- -- 85
2021-02-08 17:00:00 12.4 8 Sudoeste 30 Sudoeste 0 -- -- 79
2021-02-08 16:00:00 12.1 8 Sudoeste 26 Oeste 0.4 -- -- 83
2021-02-08 15:00:00 11.1 9 Sudoeste 27 Oeste 0.4 -- -- 85
2021-02-08 14:00:00 11.7 8 Sudoeste 25 Sudoeste 0 -- -- 77
2021-02-08 13:00:00 11.3 8 Sudoeste 25 Sudoeste 0 -- -- 78
2021-02-08 12:00:00 10.8 6 Sudoeste 29 Sudoeste 0 -- -- 81
2021-02-08 11:00:00 10.5 6 Sudoeste 20 Sudoeste 0 -- -- 87
2021-02-08 10:00:00 9.3 5 Sudoeste 17 Sudoeste 0 -- -- 92
2021-02-08 09:00:00 9.6 4 Sudoeste 12 Sudoeste 0.2 -- -- 96
2021-02-08 08:00:00 10 3 Sudoeste 36 Oeste 2.6 -- -- 97
2021-02-08 07:00:00 10 11 Sur 25 Sudeste 2.2 -- -- 96
2021-02-08 06:00:00 9.6 6 Sur 15 Sur 0.6 -- -- 96
2021-02-08 05:00:00 9.2 8 Sur 17 Sur 0.4 -- -- 97
2021-02-08 04:00:00 8.9 6 Sur 14 Sur 0.6 -- -- 98
2021-02-08 03:00:00 8.6 6 Sur 14 Oeste 0.6 -- -- 97
2021-02-08 02:00:00 9.3 6 Sudoeste 15 Oeste 0 -- -- 87
2021-02-08 01:00:00 9.1 5 Sudoeste 14 Sudoeste 0 -- -- 84
2021-02-08 00:00:00 8.9 4 Sudoeste 16 Sudoeste 0 -- -- 83
2021-02-07 23:00:00 9 5 Sudoeste 19 Sudoeste 0 -- -- 78
2021-02-07 22:00:00 9.2 8 Sudoeste 22 Oeste 0 -- -- 76
2021-02-07 21:00:00 9.5 6 Sudoeste 24 Sudoeste 0 -- -- 76
2021-02-07 20:00:00 10 8 Sudoeste 24 Sudoeste 0 -- -- 76
2021-02-07 19:00:00 10.7 8 Sudoeste 28 Oeste 0 -- -- 72
2021-02-07 18:00:00 11.6 9 Sudoeste 26 Oeste 0 -- -- 76
2021-02-07 17:00:00 13.1 8 Sudoeste 23 Sudoeste 0 -- -- 60
2021-02-07 16:00:00 12.7 6 Sudoeste 22 Sudoeste 0 -- -- 63
2021-02-07 15:00:00 12.7 6 Sudoeste 22 Oeste 0 -- -- 65
2021-02-07 14:00:00 10.9 5 Oeste 19 Sudoeste 0 -- -- 81
2021-02-07 13:00:00 10.1 5 Sudoeste 17 Sudoeste 0 -- -- 87
2021-02-07 12:00:00 9.3 5 Sudoeste 14 Sur 0 -- -- 92
2021-02-07 11:00:00 8.9 5 Sudoeste 18 Sudoeste 0 -- -- 94
2021-02-07 10:00:00 8.5 5 Sudoeste 17 Sudoeste 0 -- -- 97
2021-02-07 09:00:00 8.2 4 Sudoeste 17 Sudoeste 0 -- -- 97
2021-02-07 08:00:00 8.3 4 Sudoeste 16 Sudoeste 0 -- -- 96
2021-02-07 07:00:00 8.3 3 Sudoeste 12 Oeste 0 -- -- 95
2021-02-07 06:00:00 8.3 4 Sudoeste 12 Oeste 0 -- -- 96
2021-02-07 05:00:00 8.5 3 Sudoeste 13 Oeste 0 -- -- 96
2021-02-07 04:00:00 8.6 3 Oeste 16 Sudoeste 0 -- -- 96
2021-02-07 03:00:00 9.1 6 Sudoeste 18 Oeste 0 -- -- 92
2021-02-07 02:00:00 9.3 4 Sudoeste 16 Oeste 0 -- -- 91
2021-02-07 01:00:00 9.7 5 Sudoeste 16 Oeste 0 -- -- 89
2021-02-07 00:00:00 9.9 5 Sudoeste 13 Sudoeste 0 -- -- 90
2021-02-06 23:00:00 10 3 Sudoeste 10 Sudoeste 0 -- -- 91
2021-02-06 22:00:00 10.1 3 Sudoeste 18 Sudoeste 0 -- -- 89
2021-02-06 21:00:00 10.2 6 Sudoeste 16 Sudoeste 0 -- -- 86
2021-02-06 20:00:00 10.3 2 Sudoeste 6 Oeste 0 -- -- 93
2021-02-06 19:00:00 10.2 3 Oeste 8 Oeste 0 -- -- 91
2021-02-06 18:00:00 10.9 4 Sudoeste 17 Oeste 0 -- -- 88
2021-02-06 17:00:00 11.4 4 Sudoeste 19 Noroeste 0 -- -- 86
2021-02-06 16:00:00 12 6 Oeste 19 Noroeste 0.2 -- -- 82
2021-02-06 15:00:00 10.9 3 Sudoeste 13 Sudoeste 1.2 -- -- 91
2021-02-06 14:00:00 11.4 5 Sudoeste 21 Sudoeste 0 -- -- 83
2021-02-06 13:00:00 11 8 Sudoeste 18 Oeste 0 -- -- 85
2021-02-06 12:00:00 9.8 3 Sudoeste 13 Oeste 0 -- -- 93
2021-02-06 11:00:00 9.1 3 Sur 7 Sur 0.4 -- -- 95
2021-02-06 10:00:00 8.8 3 Oeste 15 Sudoeste 0 -- -- 92
2021-02-06 09:00:00 8.3 6 Sudoeste 20 Sudoeste 0.2 -- -- 93
2021-02-06 08:00:00 8.7 7 Sudoeste 25 Sudoeste 0.4 -- -- 95
2021-02-06 07:00:00 9.6 5 Sudoeste 18 Sudoeste 0.8 -- -- 96
2021-02-06 06:00:00 9.8 0 Calma 7 Nordeste 0.2 -- -- 95
2021-02-06 05:00:00 10 3 Este 6 Este 0.2 -- -- 95
2021-02-06 04:00:00 9.8 4 Nordeste 14 Norte 0.4 -- -- 95
2021-02-06 03:00:00 9.6 2 Norte 4 Norte 0 -- -- 95
2021-02-06 02:00:00 9.8 0 Calma 3 Sudeste 0 -- -- 95
2021-02-06 01:00:00 9.9 0 Calma 6 Sudeste 0 -- -- 93
2021-02-06 00:00:00 10.5 3 Sudeste 6 Este 0 -- -- 94
2021-02-05 23:00:00 10.7 0 Calma 4 Este 2.4 -- -- 92
2021-02-05 22:00:00 10.9 0 Calma 4 Oeste 0.6 -- -- 91
2021-02-05 21:00:00 10.8 0 Calma 9 Sur 0 -- -- 87
2021-02-05 20:00:00 11.8 0 Calma 15 Sudoeste 0.2 -- -- 83
2021-02-05 19:00:00 12.5 4 Sudoeste 30 Oeste 0 -- -- 76
2021-02-05 18:00:00 15.4 7 Sudoeste 24 Oeste 0 -- -- 71
2021-02-05 17:00:00 16.4 7 Sudoeste 24 Sudoeste 0 -- -- 62
2021-02-05 16:00:00 17.5 7 Sudoeste 26 Sudoeste 0 -- -- 57
2021-02-05 15:00:00 17.5 8 Sudoeste 24 Sudoeste 0 -- -- 60
2021-02-05 14:00:00 17 8 Sudoeste 25 Sudoeste 0 -- -- 63
2021-02-05 13:00:00 15.6 7 Sudoeste 18 Sudoeste 0 -- -- 66
2021-02-05 12:00:00 14.3 5 Sudoeste 15 Sudoeste 0 -- -- 73
2021-02-05 11:00:00 12 3 Sudoeste 13 Sudoeste 0 -- -- 81
2021-02-05 10:00:00 9.8 0 Calma 5 Oeste 0 -- -- 81
2021-02-05 09:00:00 9.2 3 Oeste 9 Oeste 0 -- -- 81
2021-02-05 08:00:00 11.2 3 Norte 14 Nordeste 0 -- -- 69
2021-02-05 07:00:00 11.1 6 Nordeste 10 Nordeste 0 -- -- 69
2021-02-05 06:00:00 10.9 8 Nordeste 14 Nordeste 0 -- -- 75
2021-02-05 05:00:00 10.4 3 Norte 11 Nordeste 0 -- -- 82
2021-02-05 04:00:00 10.9 0 Calma 10 Nordeste 0 -- -- 84
2021-02-05 03:00:00 11.1 4 Nordeste 9 Nordeste 0 -- -- 87
2021-02-05 02:00:00 11.6 0 Calma 11 Nordeste 0 -- -- 87
2021-02-05 01:00:00 11.5 3 Norte 8 Noroeste 0 -- -- 89
2021-02-05 00:00:00 11.6 0 Calma 13 Nordeste 0 -- -- 88
2021-02-04 23:00:00 11.9 6 Nordeste 15 Nordeste 0 -- -- 86
2021-02-04 22:00:00 12.1 3 Norte 9 Norte 0 -- -- 85
2021-02-04 21:00:00 12.5 2 Norte 5 Norte 0 -- -- 83
2021-02-04 20:00:00 13.3 0 Calma 12 Oeste 0 -- -- 79
2021-02-04 19:00:00 14.4 0 Calma 8 Sudoeste 0 -- -- 75
2021-02-04 18:00:00 15.7 3 Sudoeste 10 Oeste 0 -- -- 69
2021-02-04 17:00:00 16.4 4 Sudoeste 15 Sudoeste 0 -- -- 66
2021-02-04 16:00:00 16.5 6 Sudoeste 20 Oeste 0 -- -- 62
2021-02-04 15:00:00 17.5 7 Sudoeste 19 Oeste 0 -- -- 63
2021-02-04 14:00:00 17.4 6 Oeste 13 Oeste 0 -- -- 58
2021-02-04 13:00:00 15.7 0 Calma 9 Este 0 -- -- 72
2021-02-04 12:00:00 14.9 5 Este 12 Este 0 -- -- 76
2021-02-04 11:00:00 12.5 6 Nordeste 12 Nordeste 0 -- -- 84
2021-02-04 10:00:00 10.5 6 Nordeste 12 Nordeste 0 -- -- 92
2021-02-04 09:00:00 9 5 Nordeste 11 Nordeste 0 -- -- 95
2021-02-04 08:00:00 8.9 4 Nordeste 11 Nordeste 0 -- -- 94
2021-02-04 07:00:00 9.1 2 Sudeste 13 Norte 0 -- -- 92
2021-02-04 06:00:00 9.4 0 Calma 10 Nordeste 0 -- -- 94
2021-02-04 05:00:00 9 5 Nordeste 10 Nordeste 0 -- -- 94
2021-02-04 04:00:00 9.2 4 Norte 10 Nordeste 0 -- -- 93
2021-02-04 03:00:00 9.3 5 Nordeste 9 Nordeste 0 -- -- 93
2021-02-04 02:00:00 9.3 0 Calma 2 Este 0 -- -- 94
2021-02-04 01:00:00 9.3 0 Calma 7 Nordeste 0 -- -- 93
2021-02-04 00:00:00 9.5 0 Calma 2 Este 0 -- -- 91
2021-02-03 23:00:00 9.8 0 Calma 2 Norte 0 -- -- 91
2021-02-03 22:00:00 10.4 0 Calma 4 Oeste 0 -- -- 87
2021-02-03 21:00:00 11 0 Calma 5 Oeste 0 -- -- 87
2021-02-03 20:00:00 11.8 0 Calma 5 Noroeste 0 -- -- 84
2021-02-03 19:00:00 12.9 0 Calma 8 Sudoeste 0 -- -- 80
2021-02-03 18:00:00 14.1 2 Sudoeste 9 Oeste 0 -- -- 73
2021-02-03 17:00:00 15.1 4 Sudoeste 11 Sudoeste 0 -- -- 67
2021-02-03 16:00:00 15.3 3 Sur 10 Sudoeste 0 -- -- 65
2021-02-03 15:00:00 15.3 4 Sudoeste 11 Sur 0 -- -- 65
2021-02-03 14:00:00 14.1 4 Sudoeste 12 Oeste 0 -- -- 71
2021-02-03 13:00:00 13.6 4 Sur 10 Sudoeste 0 -- -- 72
2021-02-03 12:00:00 12.4 0 Calma 4 Este 0 -- -- 82
2021-02-03 11:00:00 11.3 2 Sudeste 6 Este 0 -- -- 88
2021-02-03 10:00:00 10 0 Calma 3 Norte 0 -- -- 95
2021-02-03 09:00:00 8.8 0 Calma 4 Norte 0 -- -- 97
2021-02-03 08:00:00 8.3 0 Calma 3 Norte 0 -- -- 96
2021-02-03 07:00:00 8.2 0 Calma 2 Norte 0 -- -- 94
2021-02-03 06:00:00 9 0 Calma 2 Nordeste 0 -- -- 94
2021-02-03 05:00:00 9.1 0 Calma 0 Calma 0 -- -- 94
2021-02-03 04:00:00 8.9 0 Calma 2 Sudeste 0 -- -- 94
2021-02-03 03:00:00 8.6 0 Calma 4 Norte 0 -- -- 95
2021-02-03 02:00:00 8.6 3 Norte 5 Nordeste 0 -- -- 93
2021-02-03 01:00:00 9.3 0 Calma 4 Noroeste 0 -- -- 90
2021-02-03 00:00:00 10 2 Noroeste 4 Oeste 0 -- -- 88
2021-02-02 23:00:00 10.9 0 Calma 4 Noroeste 0 -- -- 86
2021-02-02 22:00:00 12.4 0 Calma 6 Oeste 0 -- -- 82
2021-02-02 21:00:00 12.7 0 Calma 5 Oeste 0 -- -- 82
2021-02-02 20:00:00 12.9 0 Calma 10 Oeste 0 -- -- 82
2021-02-02 19:00:00 13.3 4 Oeste 13 Oeste 0 -- -- 80
2021-02-02 18:00:00 13.6 6 Oeste 12 Oeste 0 -- -- 77
2021-02-02 17:00:00 14 5 Oeste 10 Noroeste 0 -- -- 75
2021-02-02 16:00:00 14.3 0 Calma 11 Oeste 0 -- -- 76
2021-02-02 15:00:00 14 2 Oeste 10 Oeste 0 -- -- 74
2021-02-02 14:00:00 13.7 2 Oeste 9 Noroeste 0 -- -- 78
2021-02-02 13:00:00 13.3 3 Sur 10 Este 0 -- -- 77
2021-02-02 12:00:00 12.9 3 Este 9 Este 0 -- -- 84
2021-02-02 11:00:00 11.8 2 Este 5 Sudeste 0 -- -- 90
2021-02-02 10:00:00 11.2 0 Calma 2 Este 0 -- -- 91
2021-02-02 09:00:00 10.9 0 Calma 5 Sur 0 -- -- 92
2021-02-02 08:00:00 11.1 0 Calma 4 Sur 0 -- -- 94
2021-02-02 07:00:00 11.2 0 Calma 8 Norte 0 -- -- 92
2021-02-02 06:00:00 11.3 3 Noroeste 6 Noroeste 0 -- -- 92
2021-02-02 05:00:00 11.4 0 Calma 6 Oeste 0 -- -- 92
2021-02-02 04:00:00 11.5 0 Calma 6 Sudoeste 0 -- -- 93
2021-02-02 03:00:00 11.6 0 Calma 8 Sur 0 -- -- 92
2021-02-02 02:00:00 11.7 3 Sudoeste 12 Sudoeste 0 -- -- 91
2021-02-02 01:00:00 11.9 2 Sudoeste 8 Sudoeste 0 -- -- 92
2021-02-02 00:00:00 12 4 Sudoeste 15 Oeste 0 -- -- 91
2021-02-01 23:00:00 12.6 3 Sudoeste 11 Sudoeste 0 -- -- 89
2021-02-01 22:00:00 13.2 4 Oeste 13 Oeste 0 -- -- 86
2021-02-01 21:00:00 12.8 0 Calma 7 Noroeste 0 -- -- 87
2021-02-01 20:00:00 13.1 3 Noroeste 8 Noroeste 0 -- -- 85
2021-02-01 19:00:00 14.1 3 Sudoeste 12 Sur 0 -- -- 80
2021-02-01 18:00:00 15.4 5 Sudoeste 15 Sudoeste 0 -- -- 73
2021-02-01 17:00:00 16.6 6 Sudoeste 22 Sudoeste 0 -- -- 67
2021-02-01 16:00:00 16.9 8 Sudoeste 21 Oeste 0 -- -- 63
2021-02-01 15:00:00 16.7 8 Sudoeste 20 Oeste 0 -- -- 63
2021-02-01 14:00:00 15.7 6 Sudoeste 19 Sudoeste 0 -- -- 68
2021-02-01 13:00:00 15.1 6 Sudoeste 23 Oeste 0 -- -- 73
2021-02-01 12:00:00 14.9 6 Sudoeste 17 Sudoeste 0 -- -- 76
2021-02-01 11:00:00 13.5 5 Sudoeste 21 Oeste 0 -- -- 89
2021-02-01 10:00:00 12.2 5 Sudoeste 18 Sudoeste 0 -- -- 97
2021-02-01 09:00:00 12 4 Sudoeste 17 Noroeste 0 -- -- 98
2021-02-01 08:00:00 12 4 Sudoeste 15 Sudoeste 0 -- -- 98
2021-02-01 07:00:00 12.2 5 Sudoeste 12 Sur 0 -- -- 98
2021-02-01 06:00:00 12.2 4 Sudoeste 16 Oeste 0.2 -- -- 98
2021-02-01 05:00:00 12.3 3 Sudoeste 14 Oeste 0 -- -- 99
2021-02-01 04:00:00 12.3 5 Sudoeste 17 Sudoeste 0 -- -- 98
2021-02-01 03:00:00 12.2 6 Sudoeste 19 Oeste 0 -- -- 98
2021-02-01 02:00:00 12 6 Sudoeste 22 Oeste 0 -- -- 99
2021-02-01 01:00:00 12 7 Sudoeste 21 Oeste 0 -- -- 99
2021-02-01 00:00:00 12 6 Sudoeste 18 Oeste 0 -- -- 98